sensor_id;sensor_type;location;lat;lon;timestamp;pressure;altitude;pressure_sealevel;temperature;humidity
14882;BME280;7533;51.278;12.588;2023-06-14T00:02:15;100110.66;;;28.11;55.83
14882;BME280;7533;51.278;12.588;2023-06-14T00:07:27;100114.41;;;28.10;55.97
14882;BME280;7533;51.278;12.588;2023-06-14T00:12:36;100116.44;;;28.08;55.99
14882;BME280;7533;51.278;12.588;2023-06-14T00:17:38;100120.19;;;28.07;56.13
14882;BME280;7533;51.278;12.588;2023-06-14T00:22:43;100114.75;;;28.07;56.08
14882;BME280;7533;51.278;12.588;2023-06-14T00:27:46;100118.16;;;28.09;56.02
14882;BME280;7533;51.278;12.588;2023-06-14T00:32:49;100108.84;;;28.12;55.97
14882;BME280;7533;51.278;12.588;2023-06-14T00:37:54;100114.41;;;28.10;56.00
14882;BME280;7533;51.278;12.588;2023-06-14T00:42:57;100113.56;;;28.10;55.98
14882;BME280;7533;51.278;12.588;2023-06-14T00:48:00;100107.25;;;28.09;56.04
14882;BME280;7533;51.278;12.588;2023-06-14T00:53:05;100105.56;;;28.08;55.94
14882;BME280;7533;51.278;12.588;2023-06-14T00:58:08;100108.28;;;28.08;56.02
14882;BME280;7533;51.278;12.588;2023-06-14T01:03:12;100110.16;;;28.08;56.06
14882;BME280;7533;51.278;12.588;2023-06-14T01:08:24;100112.16;;;28.06;56.17
14882;BME280;7533;51.278;12.588;2023-06-14T01:13:33;100110.31;;;28.06;56.24
14882;BME280;7533;51.278;12.588;2023-06-14T01:18:37;100109.41;;;28.06;56.10
14882;BME280;7533;51.278;12.588;2023-06-14T01:23:41;100110.59;;;28.03;56.22
14882;BME280;7533;51.278;12.588;2023-06-14T01:28:44;100111.63;;;28.02;56.03
14882;BME280;7533;51.278;12.588;2023-06-14T01:33:51;100110.75;;;28.02;56.06
14882;BME280;7533;51.278;12.588;2023-06-14T01:38:56;100111.78;;;28.01;56.12
14882;BME280;7533;51.278;12.588;2023-06-14T01:44:02;100115.47;;;28.00;56.34
14882;BME280;7533;51.278;12.588;2023-06-14T01:49:07;100110.22;;;27.98;56.28
14882;BME280;7533;51.278;12.588;2023-06-14T01:54:11;100110.22;;;27.98;56.12
14882;BME280;7533;51.278;12.588;2023-06-14T01:59:14;100113.09;;;27.97;56.31
14882;BME280;7533;51.278;12.588;2023-06-14T02:04:17;100114.94;;;27.96;56.26
14882;BME280;7533;51.278;12.588;2023-06-14T02:09:22;100111.50;;;27.94;56.32
14882;BME280;7533;51.278;12.588;2023-06-14T02:14:28;100112.53;;;27.93;56.49
14882;BME280;7533;51.278;12.588;2023-06-14T02:19:31;100116.09;;;27.93;56.31
14882;BME280;7533;51.278;12.588;2023-06-14T02:24:35;100119.84;;;27.92;56.44
14882;BME280;7533;51.278;12.588;2023-06-14T02:29:42;100114.38;;;27.92;56.50
14882;BME280;7533;51.278;12.588;2023-06-14T02:34:44;100118.97;;;27.92;56.21
14882;BME280;7533;51.278;12.588;2023-06-14T02:39:52;100118.28;;;27.90;56.52
14882;BME280;7533;51.278;12.588;2023-06-14T02:44:55;100126.75;;;27.87;56.54
14882;BME280;7533;51.278;12.588;2023-06-14T02:49:58;100126.19;;;27.83;56.69
14882;BME280;7533;51.278;12.588;2023-06-14T02:55:02;100131.94;;;27.80;56.58
14882;BME280;7533;51.278;12.588;2023-06-14T03:00:06;100130.34;;;27.78;56.69
14882;BME280;7533;51.278;12.588;2023-06-14T03:05:12;100125.94;;;27.77;56.71
14882;BME280;7533;51.278;12.588;2023-06-14T03:10:17;100137.81;;;27.76;56.76
14882;BME280;7533;51.278;12.588;2023-06-14T03:15:20;100144.28;;;27.75;56.72
14882;BME280;7533;51.278;12.588;2023-06-14T03:20:26;100149.03;;;27.73;56.81
14882;BME280;7533;51.278;12.588;2023-06-14T03:25:35;100141.00;;;27.71;56.79
14882;BME280;7533;51.278;12.588;2023-06-14T03:30:40;100153.72;;;27.71;56.82
14882;BME280;7533;51.278;12.588;2023-06-14T03:35:43;100159.28;;;27.69;56.94
14882;BME280;7533;51.278;12.588;2023-06-14T03:40:48;100165.75;;;27.68;56.79
14882;BME280;7533;51.278;12.588;2023-06-14T03:45:51;100163.16;;;27.66;57.00
14882;BME280;7533;51.278;12.588;2023-06-14T03:50:56;100183.06;;;27.67;56.98
14882;BME280;7533;51.278;12.588;2023-06-14T03:56:04;100170.47;;;27.66;57.02
14882;BME280;7533;51.278;12.588;2023-06-14T04:01:14;100180.47;;;27.65;57.09
14882;BME280;7533;51.278;12.588;2023-06-14T04:06:17;100188.97;;;27.62;57.12
14882;BME280;7533;51.278;12.588;2023-06-14T04:11:23;100187.94;;;27.63;57.13
14882;BME280;7533;51.278;12.588;2023-06-14T04:16:28;100193.38;;;27.63;57.28
14882;BME280;7533;51.278;12.588;2023-06-14T04:21:31;100185.91;;;27.65;57.09
14882;BME280;7533;51.278;12.588;2023-06-14T04:26:39;100190.66;;;27.63;57.13
14882;BME280;7533;51.278;12.588;2023-06-14T04:31:43;100194.06;;;27.65;57.14
14882;BME280;7533;51.278;12.588;2023-06-14T04:36:47;100186.78;;;27.66;57.27
14882;BME280;7533;51.278;12.588;2023-06-14T04:41:58;100188.78;;;27.64;57.25
14882;BME280;7533;51.278;12.588;2023-06-14T04:47:02;100185.91;;;27.65;57.25
14882;BME280;7533;51.278;12.588;2023-06-14T04:52:06;100188.50;;;27.67;57.13
14882;BME280;7533;51.278;12.588;2023-06-14T04:57:15;100183.19;;;27.65;57.32
14882;BME280;7533;51.278;12.588;2023-06-14T05:02:21;100182.50;;;27.63;57.36
14882;BME280;7533;51.278;12.588;2023-06-14T05:07:25;100179.94;;;27.62;57.37
14882;BME280;7533;51.278;12.588;2023-06-14T05:12:30;100192.53;;;27.63;57.30
14882;BME280;7533;51.278;12.588;2023-06-14T05:17:33;100195.25;;;27.63;57.33
14882;BME280;7533;51.278;12.588;2023-06-14T05:22:38;100212.56;;;27.62;57.39
14882;BME280;7533;51.278;12.588;2023-06-14T05:27:42;100206.28;;;27.61;57.44
14882;BME280;7533;51.278;12.588;2023-06-14T05:32:44;100209.00;;;27.61;57.47
14882;BME280;7533;51.278;12.588;2023-06-14T05:37:47;100207.13;;;27.62;57.49
14882;BME280;7533;51.278;12.588;2023-06-14T05:42:52;100203.56;;;27.61;57.50
14882;BME280;7533;51.278;12.588;2023-06-14T05:47:54;100213.56;;;27.61;57.51
14882;BME280;7533;51.278;12.588;2023-06-14T05:52:58;100219.00;;;27.61;57.58
14882;BME280;7533;51.278;12.588;2023-06-14T05:58:02;100229.75;;;27.62;57.57
14882;BME280;7533;51.278;12.588;2023-06-14T06:03:05;100229.75;;;27.62;57.45
14882;BME280;7533;51.278;12.588;2023-06-14T06:08:10;100236.03;;;27.63;57.61
14882;BME280;7533;51.278;12.588;2023-06-14T06:13:16;100241.63;;;27.61;57.55
14882;BME280;7533;51.278;12.588;2023-06-14T06:18:19;100237.75;;;27.64;57.62
14882;BME280;7533;51.278;12.588;2023-06-14T06:23:22;100236.72;;;27.65;57.50
14882;BME280;7533;51.278;12.588;2023-06-14T06:28:26;100246.31;;;27.69;57.51
14882;BME280;7533;51.278;12.588;2023-06-14T06:33:29;100248.19;;;27.68;57.54
14882;BME280;7533;51.278;12.588;2023-06-14T06:38:32;100259.22;;;27.67;57.39
14882;BME280;7533;51.278;12.588;2023-06-14T06:43:36;100253.91;;;27.65;57.46
14882;BME280;7533;51.278;12.588;2023-06-14T06:48:39;100247.44;;;27.66;57.62
14882;BME280;7533;51.278;12.588;2023-06-14T06:53:42;100261.06;;;27.66;57.66
14882;BME280;7533;51.278;12.588;2023-06-14T06:58:53;100248.47;;;27.65;57.73
14882;BME280;7533;51.278;12.588;2023-06-14T07:03:56;100261.94;;;27.67;57.68
14882;BME280;7533;51.278;12.588;2023-06-14T07:08:58;100257.47;;;27.66;58.05
14882;BME280;7533;51.278;12.588;2023-06-14T07:14:04;100268.34;;;27.66;57.73
14882;BME280;7533;51.278;12.588;2023-06-14T07:19:07;100271.94;;;27.66;57.79
14882;BME280;7533;51.278;12.588;2023-06-14T07:24:10;100272.81;;;27.67;57.82
14882;BME280;7533;51.278;12.588;2023-06-14T07:29:15;100270.94;;;27.67;57.86
14882;BME280;7533;51.278;12.588;2023-06-14T07:34:18;100273.50;;;27.69;57.71
14882;BME280;7533;51.278;12.588;2023-06-14T07:39:21;100281.53;;;27.71;57.78
14882;BME280;7533;51.278;12.588;2023-06-14T07:44:29;100278.81;;;27.71;57.79
14882;BME280;7533;51.278;12.588;2023-06-14T07:49:32;100282.41;;;27.71;57.73
14882;BME280;7533;51.278;12.588;2023-06-14T07:54:35;100280.41;;;27.73;57.67
14882;BME280;7533;51.278;12.588;2023-06-14T07:59:40;100276.69;;;27.74;57.63
14882;BME280;7533;51.278;12.588;2023-06-14T08:04:42;100282.97;;;27.75;57.65
14882;BME280;7533;51.278;12.588;2023-06-14T08:09:45;100282.13;;;27.74;57.63
14882;BME280;7533;51.278;12.588;2023-06-14T08:14:50;100275.66;;;27.75;57.77
14882;BME280;7533;51.278;12.588;2023-06-14T08:20:10;100286.56;;;27.75;57.77
14882;BME280;7533;51.278;12.588;2023-06-14T08:25:13;100287.25;;;27.77;57.51
14882;BME280;7533;51.278;12.588;2023-06-14T08:30:18;100282.66;;;27.78;57.70
14882;BME280;7533;51.278;12.588;2023-06-14T08:35:21;100286.97;;;27.80;57.68
14882;BME280;7533;51.278;12.588;2023-06-14T08:40:27;100284.09;;;27.82;57.52
14882;BME280;7533;51.278;12.588;2023-06-14T08:45:32;100280.53;;;27.81;57.56
14882;BME280;7533;51.278;12.588;2023-06-14T08:50:36;100273.38;;;27.80;57.39
14882;BME280;7533;51.278;12.588;2023-06-14T08:55:43;100274.91;;;27.83;57.49
14882;BME280;7533;51.278;12.588;2023-06-14T09:00:48;100275.78;;;27.83;57.51
14882;BME280;7533;51.278;12.588;2023-06-14T09:05:53;100286.66;;;27.83;57.43
14882;BME280;7533;51.278;12.588;2023-06-14T09:10:57;100290.25;;;27.84;57.28
14882;BME280;7533;51.278;12.588;2023-06-14T09:16:03;100295.53;;;27.85;57.46
14882;BME280;7533;51.278;12.588;2023-06-14T09:21:07;100275.78;;;27.83;57.36
14882;BME280;7533;51.278;12.588;2023-06-14T09:26:11;100300.97;;;27.85;57.43
14882;BME280;7533;51.278;12.588;2023-06-14T09:31:17;100297.25;;;27.86;57.40
14882;BME280;7533;51.278;12.588;2023-06-14T09:36:22;100282.63;;;27.87;57.42
14882;BME280;7533;51.278;12.588;2023-06-14T09:41:31;100285.19;;;27.89;57.31
14882;BME280;7533;51.278;12.588;2023-06-14T09:46:37;100280.34;;;27.92;57.09
14882;BME280;7533;51.278;12.588;2023-06-14T09:51:43;100281.91;;;27.95;57.32
14882;BME280;7533;51.278;12.588;2023-06-14T09:56:47;100281.03;;;27.94;57.09
14882;BME280;7533;51.278;12.588;2023-06-14T10:01:57;100274.44;;;27.97;57.15
14882;BME280;7533;51.278;12.588;2023-06-14T10:07:01;100275.31;;;27.98;57.12
14882;BME280;7533;51.278;12.588;2023-06-14T10:12:07;100284.47;;;27.97;56.96
14882;BME280;7533;51.278;12.588;2023-06-14T10:17:20;100280.06;;;27.96;56.98
14882;BME280;7533;51.278;12.588;2023-06-14T10:22:32;100275.59;;;27.94;57.22
14882;BME280;7533;51.278;12.588;2023-06-14T10:27:37;100288.22;;;27.96;57.34
14882;BME280;7533;51.278;12.588;2023-06-14T10:33:05;100283.47;;;27.98;57.32
14882;BME280;7533;51.278;12.588;2023-06-14T10:38:10;100288.47;;;28.02;57.15
14882;BME280;7533;51.278;12.588;2023-06-14T10:43:21;100282.44;;;28.08;56.97
14882;BME280;7533;51.278;12.588;2023-06-14T10:48:30;100281.56;;;28.08;57.28
14882;BME280;7533;51.278;12.588;2023-06-14T10:53:40;100276.13;;;28.08;57.06
14882;BME280;7533;51.278;12.588;2023-06-14T10:58:43;100273.56;;;28.06;57.20
14882;BME280;7533;51.278;12.588;2023-06-14T11:03:51;100283.56;;;28.06;57.43
14882;BME280;7533;51.278;12.588;2023-06-14T11:09:29;100271.53;;;28.08;57.18
14882;BME280;7533;51.278;12.588;2023-06-14T11:14:40;100266.66;;;28.12;57.21
14882;BME280;7533;51.278;12.588;2023-06-14T11:19:45;100263.06;;;28.11;57.29
14882;BME280;7533;51.278;12.588;2023-06-14T11:24:48;100261.22;;;28.12;57.26
14882;BME280;7533;51.278;12.588;2023-06-14T11:29:51;100256.63;;;28.12;57.24
14882;BME280;7533;51.278;12.588;2023-06-14T11:34:56;100252.06;;;28.13;57.26
14882;BME280;7533;51.278;12.588;2023-06-14T11:40:00;100240.31;;;28.12;57.17
14882;BME280;7533;51.278;12.588;2023-06-14T11:45:04;100247.47;;;28.13;57.21
14882;BME280;7533;51.278;12.588;2023-06-14T11:50:12;100248.31;;;28.14;57.19
14882;BME280;7533;51.278;12.588;2023-06-14T11:55:15;100245.59;;;28.14;57.09
14882;BME280;7533;51.278;12.588;2023-06-14T12:00:18;100241.41;;;28.19;57.01
14882;BME280;7533;51.278;12.588;2023-06-14T12:05:25;100244.53;;;28.25;56.60
14882;BME280;7533;51.278;12.588;2023-06-14T12:10:28;100229.75;;;28.27;56.89
14882;BME280;7533;51.278;12.588;2023-06-14T12:15:32;100224.88;;;28.31;56.66
14882;BME280;7533;51.278;12.588;2023-06-14T12:20:36;100226.59;;;28.32;56.58
14882;BME280;7533;51.278;12.588;2023-06-14T12:25:42;100232.75;;;28.34;56.60
14882;BME280;7533;51.278;12.588;2023-06-14T12:30:46;100221.72;;;28.35;56.47
14882;BME280;7533;51.278;12.588;2023-06-14T12:35:53;100226.00;;;28.38;56.63
14882;BME280;7533;51.278;12.588;2023-06-14T12:40:57;100225.84;;;28.39;56.67
14882;BME280;7533;51.278;12.588;2023-06-14T12:46:00;100216.19;;;28.45;56.28
14882;BME280;7533;51.278;12.588;2023-06-14T12:51:05;100221.66;;;28.45;56.31
14882;BME280;7533;51.278;12.588;2023-06-14T12:56:08;100237.00;;;28.46;56.36
14882;BME280;7533;51.278;12.588;2023-06-14T13:01:11;100235.13;;;28.46;56.57
14882;BME280;7533;51.278;12.588;2023-06-14T13:06:15;100238.69;;;28.47;56.49
14882;BME280;7533;51.278;12.588;2023-06-14T13:11:18;100237.22;;;28.53;56.43
14882;BME280;7533;51.278;12.588;2023-06-14T13:16:21;100233.50;;;28.54;56.16
14882;BME280;7533;51.278;12.588;2023-06-14T13:21:28;100241.50;;;28.55;56.35
14882;BME280;7533;51.278;12.588;2023-06-14T13:26:32;100237.75;;;28.56;56.29
14882;BME280;7533;51.278;12.588;2023-06-14T13:31:34;100241.50;;;28.55;56.24
14882;BME280;7533;51.278;12.588;2023-06-14T13:36:39;100246.94;;;28.55;56.55
14882;BME280;7533;51.278;12.588;2023-06-14T13:41:42;100235.38;;;28.53;56.23
14882;BME280;7533;51.278;12.588;2023-06-14T13:46:45;100237.22;;;28.53;56.64
14882;BME280;7533;51.278;12.588;2023-06-14T13:51:50;100236.22;;;28.54;56.51
14882;BME280;7533;51.278;12.588;2023-06-14T13:56:53;100240.34;;;28.58;56.31
14882;BME280;7533;51.278;12.588;2023-06-14T14:01:56;100234.75;;;28.59;56.27
14882;BME280;7533;51.278;12.588;2023-06-14T14:07:00;100235.94;;;28.57;56.56
14882;BME280;7533;51.278;12.588;2023-06-14T14:12:04;100223.47;;;28.54;56.71
14882;BME280;7533;51.278;12.588;2023-06-14T14:17:07;100228.44;;;28.59;56.52
14882;BME280;7533;51.278;12.588;2023-06-14T14:22:12;100222.84;;;28.60;56.52
14882;BME280;7533;51.278;12.588;2023-06-14T14:27:15;100221.81;;;28.61;56.49
14882;BME280;7533;51.278;12.588;2023-06-14T14:32:18;100221.34;;;28.66;56.52
14882;BME280;7533;51.278;12.588;2023-06-14T14:37:23;100216.78;;;28.66;56.53
14882;BME280;7533;51.278;12.588;2023-06-14T14:42:26;100228.50;;;28.67;56.13
14882;BME280;7533;51.278;12.588;2023-06-14T14:47:32;100228.50;;;28.67;56.28
14882;BME280;7533;51.278;12.588;2023-06-14T14:52:36;100234.69;;;28.69;56.49
14882;BME280;7533;51.278;12.588;2023-06-14T14:57:39;100238.78;;;28.73;56.22
14882;BME280;7533;51.278;12.588;2023-06-14T15:02:43;100232.88;;;28.78;56.17
14882;BME280;7533;51.278;12.588;2023-06-14T15:07:48;100232.88;;;28.78;55.76
14882;BME280;7533;51.278;12.588;2023-06-14T15:12:52;100228.28;;;28.78;56.14
14882;BME280;7533;51.278;12.588;2023-06-14T15:17:55;100233.72;;;28.78;56.18
14882;BME280;7533;51.278;12.588;2023-06-14T15:22:59;100225.56;;;28.78;55.88
14882;BME280;7533;51.278;12.588;2023-06-14T15:28:02;100216.63;;;28.86;56.21
14882;BME280;7533;51.278;12.588;2023-06-14T15:33:08;100219.56;;;28.92;56.02
14882;BME280;7533;51.278;12.588;2023-06-14T15:38:12;100213.13;;;28.93;56.11
14882;BME280;7533;51.278;12.588;2023-06-14T15:43:15;100221.44;;;28.92;56.05
14882;BME280;7533;51.278;12.588;2023-06-14T15:48:18;100212.56;;;28.90;55.86
14882;BME280;7533;51.278;12.588;2023-06-14T15:53:24;100210.84;;;28.89;56.23
14882;BME280;7533;51.278;12.588;2023-06-14T15:58:30;100209.69;;;28.91;55.98
14882;BME280;7533;51.278;12.588;2023-06-14T16:03:33;100207.81;;;28.92;56.18
14882;BME280;7533;51.278;12.588;2023-06-14T16:08:37;100211.88;;;28.88;56.00
14882;BME280;7533;51.278;12.588;2023-06-14T16:13:42;100208.00;;;28.90;56.35
14882;BME280;7533;51.278;12.588;2023-06-14T16:18:45;100214.72;;;28.96;56.28
14882;BME280;7533;51.278;12.588;2023-06-14T16:23:50;100205.34;;;28.98;56.02
14882;BME280;7533;51.278;12.588;2023-06-14T16:28:53;100209.31;;;29.04;56.27
14882;BME280;7533;51.278;12.588;2023-06-14T16:33:55;100206.44;;;29.06;56.05
14882;BME280;7533;51.278;12.588;2023-06-14T16:38:59;100201.31;;;29.03;56.10
14882;BME280;7533;51.278;12.588;2023-06-14T16:44:03;100200.47;;;29.02;56.08
14882;BME280;7533;51.278;12.588;2023-06-14T16:49:06;100214.22;;;29.01;56.02
14882;BME280;7533;51.278;12.588;2023-06-14T16:54:11;100211.50;;;29.01;56.43
14882;BME280;7533;51.278;12.588;2023-06-14T16:59:14;100213.22;;;29.02;56.20
14882;BME280;7533;51.278;12.588;2023-06-14T17:04:17;100209.47;;;29.03;56.15
14882;BME280;7533;51.278;12.588;2023-06-14T17:09:21;100213.38;;;29.00;56.02
14882;BME280;7533;51.278;12.588;2023-06-14T17:14:24;100219.84;;;28.99;56.26
14882;BME280;7533;51.278;12.588;2023-06-14T17:19:27;100219.53;;;29.02;56.10
14882;BME280;7533;51.278;12.588;2023-06-14T17:24:31;100229.59;;;29.02;56.00
14882;BME280;7533;51.278;12.588;2023-06-14T17:29:34;100239.75;;;28.99;56.25
14882;BME280;7533;51.278;12.588;2023-06-14T17:34:37;100236.00;;;29.01;55.82
14882;BME280;7533;51.278;12.588;2023-06-14T17:39:41;100241.63;;;28.99;56.14
14882;BME280;7533;51.278;12.588;2023-06-14T17:44:44;100232.91;;;28.95;56.09
14882;BME280;7533;51.278;12.588;2023-06-14T17:49:47;100232.91;;;28.95;55.86
14882;BME280;7533;51.278;12.588;2023-06-14T17:54:53;100227.91;;;28.91;56.22
14882;BME280;7533;51.278;12.588;2023-06-14T17:59:56;100242.69;;;28.88;56.15
14882;BME280;7533;51.278;12.588;2023-06-14T18:04:59;100240.59;;;28.82;56.40
14882;BME280;7533;51.278;12.588;2023-06-14T18:10:04;100231.00;;;28.78;56.41
14882;BME280;7533;51.278;12.588;2023-06-14T18:15:08;100234.91;;;28.76;56.52
14882;BME280;7533;51.278;12.588;2023-06-14T18:20:12;100234.06;;;28.75;56.46
14882;BME280;7533;51.278;12.588;2023-06-14T18:25:17;100235.22;;;28.72;56.51
14882;BME280;7533;51.278;12.588;2023-06-14T18:30:21;100239.50;;;28.75;56.53
14882;BME280;7533;51.278;12.588;2023-06-14T18:35:24;100235.78;;;28.76;56.55
14882;BME280;7533;51.278;12.588;2023-06-14T18:40:28;100230.88;;;28.80;56.48
14882;BME280;7533;51.278;12.588;2023-06-14T18:45:31;100241.59;;;28.81;56.08
14882;BME280;7533;51.278;12.588;2023-06-14T18:50:34;100243.94;;;28.76;56.18
14882;BME280;7533;51.278;12.588;2023-06-14T18:55:38;100239.34;;;28.77;56.04
14882;BME280;7533;51.278;12.588;2023-06-14T19:00:42;100238.31;;;28.78;56.41
14882;BME280;7533;51.278;12.588;2023-06-14T19:05:45;100249.56;;;28.75;56.01
14882;BME280;7533;51.278;12.588;2023-06-14T19:10:49;100255.47;;;28.70;56.12
14882;BME280;7533;51.278;12.588;2023-06-14T19:15:53;100249.31;;;28.68;56.00
14882;BME280;7533;51.278;12.588;2023-06-14T19:20:56;100258.81;;;28.64;56.35
14882;BME280;7533;51.278;12.588;2023-06-14T19:26:01;100255.06;;;28.65;56.40
14882;BME280;7533;51.278;12.588;2023-06-14T19:31:03;100259.81;;;28.63;55.99
14882;BME280;7533;51.278;12.588;2023-06-14T19:36:06;100267.41;;;28.59;56.38
14882;BME280;7533;51.278;12.588;2023-06-14T19:41:11;100277.13;;;28.62;56.34
14882;BME280;7533;51.278;12.588;2023-06-14T19:46:14;100276.44;;;28.60;56.31
14882;BME280;7533;51.278;12.588;2023-06-14T19:51:18;100275.75;;;28.58;56.43
14882;BME280;7533;51.278;12.588;2023-06-14T19:56:22;100290.38;;;28.57;56.23
14882;BME280;7533;51.278;12.588;2023-06-14T20:01:25;100293.25;;;28.55;56.04
14882;BME280;7533;51.278;12.588;2023-06-14T20:06:28;100298.84;;;28.54;56.18
14882;BME280;7533;51.278;12.588;2023-06-14T20:11:33;100294.41;;;28.53;56.41
14882;BME280;7533;51.278;12.588;2023-06-14T20:16:36;100289.13;;;28.51;56.37
14882;BME280;7533;51.278;12.588;2023-06-14T20:21:39;100299.31;;;28.49;56.24
14882;BME280;7533;51.278;12.588;2023-06-14T20:26:43;100296.75;;;28.48;56.41
14882;BME280;7533;51.278;12.588;2023-06-14T20:31:47;100295.88;;;28.47;56.54
14882;BME280;7533;51.278;12.588;2023-06-14T20:36:50;100298.03;;;28.43;56.49
14882;BME280;7533;51.278;12.588;2023-06-14T20:41:55;100290.03;;;28.42;56.40
14882;BME280;7533;51.278;12.588;2023-06-14T20:46:59;100288.44;;;28.39;56.57
14882;BME280;7533;51.278;12.588;2023-06-14T20:52:02;100290.31;;;28.39;56.49
14882;BME280;7533;51.278;12.588;2023-06-14T20:57:07;100291.50;;;28.36;56.83
14882;BME280;7533;51.278;12.588;2023-06-14T21:02:13;100295.38;;;28.34;56.63
14882;BME280;7533;51.278;12.588;2023-06-14T21:07:19;100292.94;;;28.31;56.75
14882;BME280;7533;51.278;12.588;2023-06-14T21:12:23;100284.91;;;28.29;56.77
14882;BME280;7533;51.278;12.588;2023-06-14T21:17:27;100287.75;;;28.28;56.83
14882;BME280;7533;51.278;12.588;2023-06-14T21:22:30;100288.94;;;28.25;56.84
14882;BME280;7533;51.278;12.588;2023-06-14T21:27:34;100289.97;;;28.24;56.75
14882;BME280;7533;51.278;12.588;2023-06-14T21:32:38;100298.25;;;28.23;56.87
14882;BME280;7533;51.278;12.588;2023-06-14T21:37:42;100296.69;;;28.20;57.11
14882;BME280;7533;51.278;12.588;2023-06-14T21:42:46;100291.84;;;28.14;57.03
14882;BME280;7533;51.278;12.588;2023-06-14T21:47:49;100293.16;;;28.10;57.14
14882;BME280;7533;51.278;12.588;2023-06-14T21:52:52;100297.03;;;28.07;57.10
14882;BME280;7533;51.278;12.588;2023-06-14T21:57:57;100293.75;;;28.04;57.32
14882;BME280;7533;51.278;12.588;2023-06-14T22:03:00;100296.47;;;28.04;57.32
14882;BME280;7533;51.278;12.588;2023-06-14T22:08:06;100297.47;;;28.03;57.33
14882;BME280;7533;51.278;12.588;2023-06-14T22:13:11;100303.09;;;28.01;57.31
14882;BME280;7533;51.278;12.588;2023-06-14T22:18:15;100299.34;;;28.02;57.43
14882;BME280;7533;51.278;12.588;2023-06-14T22:23:18;100300.22;;;28.03;57.13
14882;BME280;7533;51.278;12.588;2023-06-14T22:28:22;100294.94;;;28.01;57.17
14882;BME280;7533;51.278;12.588;2023-06-14T22:33:25;100298.50;;;28.02;57.26
14882;BME280;7533;51.278;12.588;2023-06-14T22:38:28;100293.19;;;28.00;57.24
14882;BME280;7533;51.278;12.588;2023-06-14T22:43:34;100295.06;;;28.00;57.25
14882;BME280;7533;51.278;12.588;2023-06-14T22:48:39;100303.38;;;27.98;57.50
14882;BME280;7533;51.278;12.588;2023-06-14T22:53:47;100296.50;;;27.94;57.34
14882;BME280;7533;51.278;12.588;2023-06-14T22:58:52;100306.84;;;27.90;57.67
14882;BME280;7533;51.278;12.588;2023-06-14T23:03:55;100300.81;;;27.87;57.66
14882;BME280;7533;51.278;12.588;2023-06-14T23:08:58;100301.53;;;27.89;57.51
14882;BME280;7533;51.278;12.588;2023-06-14T23:14:03;100304.13;;;27.90;57.39
14882;BME280;7533;51.278;12.588;2023-06-14T23:19:06;100291.53;;;27.89;57.64
14882;BME280;7533;51.278;12.588;2023-06-14T23:24:10;100285.19;;;27.89;57.57
14882;BME280;7533;51.278;12.588;2023-06-14T23:29:16;100292.50;;;27.88;57.57
14882;BME280;7533;51.278;12.588;2023-06-14T23:34:21;100290.66;;;27.89;57.47
14882;BME280;7533;51.278;12.588;2023-06-14T23:39:24;100283.66;;;27.86;57.67
14882;BME280;7533;51.278;12.588;2023-06-14T23:44:28;100289.94;;;27.87;57.57
14882;BME280;7533;51.278;12.588;2023-06-14T23:49:31;100292.09;;;27.83;57.62
14882;BME280;7533;51.278;12.588;2023-06-14T23:54:34;100284.81;;;27.84;57.69
14882;BME280;7533;51.278;12.588;2023-06-14T23:59:38;100275.38;;;27.78;57.77
